sensor_id;sensor_type;location;lat;lon;timestamp;P1;durP1;ratioP1;P2;durP2;ratioP2
3101;SDS011;1561;42.666;23.392;2023-09-19T00:02:04;6.13;;;5.60;;
3101;SDS011;1561;42.666;23.392;2023-09-19T00:04:36;8.00;;;6.50;;
3101;SDS011;1561;42.666;23.392;2023-09-19T00:07:05;7.33;;;6.63;;
3101;SDS011;1561;42.666;23.392;2023-09-19T00:09:40;8.70;;;6.43;;
3101;SDS011;1561;42.666;23.392;2023-09-19T00:12:14;7.43;;;6.67;;
3101;SDS011;1561;42.666;23.392;2023-09-19T00:14:44;7.10;;;6.37;;
3101;SDS011;1561;42.666;23.392;2023-09-19T00:17:15;7.70;;;6.60;;
3101;SDS011;1561;42.666;23.392;2023-09-19T00:19:44;7.27;;;6.53;;
3101;SDS011;1561;42.666;23.392;2023-09-19T00:22:17;7.63;;;6.70;;
3101;SDS011;1561;42.666;23.392;2023-09-19T00:24:44;8.03;;;7.03;;
3101;SDS011;1561;42.666;23.392;2023-09-19T00:27:17;9.07;;;6.73;;
3101;SDS011;1561;42.666;23.392;2023-09-19T00:29:48;12.27;;;6.30;;
3101;SDS011;1561;42.666;23.392;2023-09-19T00:32:24;8.80;;;6.63;;
3101;SDS011;1561;42.666;23.392;2023-09-19T00:34:56;8.53;;;7.50;;
3101;SDS011;1561;42.666;23.392;2023-09-19T00:37:25;8.90;;;7.30;;
3101;SDS011;1561;42.666;23.392;2023-09-19T00:39:58;8.60;;;6.80;;
3101;SDS011;1561;42.666;23.392;2023-09-19T00:42:26;7.83;;;6.90;;
3101;SDS011;1561;42.666;23.392;2023-09-19T00:44:56;9.40;;;8.40;;
3101;SDS011;1561;42.666;23.392;2023-09-19T00:47:24;10.47;;;7.77;;
3101;SDS011;1561;42.666;23.392;2023-09-19T00:50:01;10.60;;;8.20;;
3101;SDS011;1561;42.666;23.392;2023-09-19T00:52:40;8.83;;;7.93;;
3101;SDS011;1561;42.666;23.392;2023-09-19T00:55:10;8.20;;;7.50;;
3101;SDS011;1561;42.666;23.392;2023-09-19T00:57:48;8.90;;;7.60;;
3101;SDS011;1561;42.666;23.392;2023-09-19T01:00:16;10.47;;;8.03;;
3101;SDS011;1561;42.666;23.392;2023-09-19T01:02:48;7.93;;;7.13;;
3101;SDS011;1561;42.666;23.392;2023-09-19T01:05:15;9.40;;;8.50;;
3101;SDS011;1561;42.666;23.392;2023-09-19T01:07:45;10.70;;;8.87;;
3101;SDS011;1561;42.666;23.392;2023-09-19T01:10:24;10.70;;;9.17;;
3101;SDS011;1561;42.666;23.392;2023-09-19T01:12:59;11.17;;;8.60;;
3101;SDS011;1561;42.666;23.392;2023-09-19T01:15:47;7.73;;;6.93;;
3101;SDS011;1561;42.666;23.392;2023-09-19T01:18:25;10.30;;;8.60;;
3101;SDS011;1561;42.666;23.392;2023-09-19T01:21:03;9.13;;;8.33;;
3101;SDS011;1561;42.666;23.392;2023-09-19T01:23:48;12.30;;;8.13;;
3101;SDS011;1561;42.666;23.392;2023-09-19T01:26:53;11.10;;;10.00;;
3101;SDS011;1561;42.666;23.392;2023-09-19T01:29:38;11.37;;;8.50;;
3101;SDS011;1561;42.666;23.392;2023-09-19T01:32:17;10.73;;;9.73;;
3101;SDS011;1561;42.666;23.392;2023-09-19T01:34:47;13.67;;;9.90;;
3101;SDS011;1561;42.666;23.392;2023-09-19T01:37:19;10.03;;;9.03;;
3101;SDS011;1561;42.666;23.392;2023-09-19T01:39:51;9.80;;;8.90;;
3101;SDS011;1561;42.666;23.392;2023-09-19T01:42:27;10.20;;;9.20;;
3101;SDS011;1561;42.666;23.392;2023-09-19T01:45:05;9.67;;;8.23;;
3101;SDS011;1561;42.666;23.392;2023-09-19T01:47:46;9.70;;;8.50;;
3101;SDS011;1561;42.666;23.392;2023-09-19T01:50:20;9.13;;;8.23;;
3101;SDS011;1561;42.666;23.392;2023-09-19T01:52:57;8.83;;;7.93;;
3101;SDS011;1561;42.666;23.392;2023-09-19T01:55:29;9.83;;;8.83;;
3101;SDS011;1561;42.666;23.392;2023-09-19T01:58:07;10.10;;;9.13;;
3101;SDS011;1561;42.666;23.392;2023-09-19T02:00:41;10.17;;;8.23;;
3101;SDS011;1561;42.666;23.392;2023-09-19T02:03:15;8.43;;;7.60;;
3101;SDS011;1561;42.666;23.392;2023-09-19T02:05:50;9.90;;;8.40;;
3101;SDS011;1561;42.666;23.392;2023-09-19T02:08:19;7.97;;;7.13;;
3101;SDS011;1561;42.666;23.392;2023-09-19T02:10:49;8.40;;;7.60;;
3101;SDS011;1561;42.666;23.392;2023-09-19T02:13:29;10.23;;;9.20;;
3101;SDS011;1561;42.666;23.392;2023-09-19T02:16:00;9.33;;;8.43;;
3101;SDS011;1561;42.666;23.392;2023-09-19T02:21:16;10.67;;;9.27;;
3101;SDS011;1561;42.666;23.392;2023-09-19T02:24:04;12.50;;;9.37;;
3101;SDS011;1561;42.666;23.392;2023-09-19T02:26:38;8.60;;;7.80;;
3101;SDS011;1561;42.666;23.392;2023-09-19T02:29:05;8.20;;;7.23;;
3101;SDS011;1561;42.666;23.392;2023-09-19T02:31:43;9.80;;;8.53;;
3101;SDS011;1561;42.666;23.392;2023-09-19T02:34:13;11.03;;;8.00;;
3101;SDS011;1561;42.666;23.392;2023-09-19T02:36:54;9.13;;;7.70;;
3101;SDS011;1561;42.666;23.392;2023-09-19T02:39:30;9.30;;;8.07;;
3101;SDS011;1561;42.666;23.392;2023-09-19T02:41:59;7.97;;;7.17;;
3101;SDS011;1561;42.666;23.392;2023-09-19T02:44:30;9.73;;;7.03;;
3101;SDS011;1561;42.666;23.392;2023-09-19T02:47:01;8.70;;;7.80;;
3101;SDS011;1561;42.666;23.392;2023-09-19T02:49:31;7.60;;;6.90;;
3101;SDS011;1561;42.666;23.392;2023-09-19T02:52:00;8.30;;;7.50;;
3101;SDS011;1561;42.666;23.392;2023-09-19T02:54:31;8.73;;;7.83;;
3101;SDS011;1561;42.666;23.392;2023-09-19T02:57:00;8.73;;;7.90;;
3101;SDS011;1561;42.666;23.392;2023-09-19T02:59:33;11.40;;;8.00;;
3101;SDS011;1561;42.666;23.392;2023-09-19T03:02:05;9.27;;;8.10;;
3101;SDS011;1561;42.666;23.392;2023-09-19T03:04:40;13.07;;;8.93;;
3101;SDS011;1561;42.666;23.392;2023-09-19T03:07:08;10.03;;;8.93;;
3101;SDS011;1561;42.666;23.392;2023-09-19T03:09:38;9.37;;;8.47;;
3101;SDS011;1561;42.666;23.392;2023-09-19T03:12:08;11.57;;;10.27;;
3101;SDS011;1561;42.666;23.392;2023-09-19T03:14:37;16.00;;;10.50;;
3101;SDS011;1561;42.666;23.392;2023-09-19T03:17:18;13.30;;;10.70;;
3101;SDS011;1561;42.666;23.392;2023-09-19T03:19:57;15.93;;;12.30;;
3101;SDS011;1561;42.666;23.392;2023-09-19T03:22:27;11.90;;;10.70;;
3101;SDS011;1561;42.666;23.392;2023-09-19T03:24:55;9.53;;;8.63;;
3101;SDS011;1561;42.666;23.392;2023-09-19T03:27:30;12.80;;;9.87;;
3101;SDS011;1561;42.666;23.392;2023-09-19T03:30:02;15.40;;;12.77;;
3101;SDS011;1561;42.666;23.392;2023-09-19T03:32:39;11.50;;;10.17;;
3101;SDS011;1561;42.666;23.392;2023-09-19T03:35:13;10.07;;;9.10;;
3101;SDS011;1561;42.666;23.392;2023-09-19T03:37:48;11.63;;;10.17;;
3101;SDS011;1561;42.666;23.392;2023-09-19T03:40:20;13.73;;;11.37;;
3101;SDS011;1561;42.666;23.392;2023-09-19T03:42:50;13.80;;;10.50;;
3101;SDS011;1561;42.666;23.392;2023-09-19T03:45:20;13.73;;;10.97;;
3101;SDS011;1561;42.666;23.392;2023-09-19T03:47:47;12.70;;;10.27;;
3101;SDS011;1561;42.666;23.392;2023-09-19T03:50:20;9.20;;;8.30;;
3101;SDS011;1561;42.666;23.392;2023-09-19T03:52:50;10.60;;;9.60;;
3101;SDS011;1561;42.666;23.392;2023-09-19T03:55:25;10.17;;;9.00;;
3101;SDS011;1561;42.666;23.392;2023-09-19T03:57:56;9.80;;;8.90;;
3101;SDS011;1561;42.666;23.392;2023-09-19T04:00:31;11.33;;;9.30;;
3101;SDS011;1561;42.666;23.392;2023-09-19T04:03:04;11.47;;;10.27;;
3101;SDS011;1561;42.666;23.392;2023-09-19T04:05:38;10.63;;;9.27;;
3101;SDS011;1561;42.666;23.392;2023-09-19T04:08:10;11.37;;;10.20;;
3101;SDS011;1561;42.666;23.392;2023-09-19T04:10:46;10.87;;;9.67;;
3101;SDS011;1561;42.666;23.392;2023-09-19T04:13:23;11.97;;;9.90;;
3101;SDS011;1561;42.666;23.392;2023-09-19T04:15:53;9.10;;;8.20;;
3101;SDS011;1561;42.666;23.392;2023-09-19T04:18:26;10.53;;;9.47;;
3101;SDS011;1561;42.666;23.392;2023-09-19T04:21:28;16.20;;;10.30;;
3101;SDS011;1561;42.666;23.392;2023-09-19T04:24:01;12.33;;;11.07;;
3101;SDS011;1561;42.666;23.392;2023-09-19T04:26:37;11.00;;;9.83;;
3101;SDS011;1561;42.666;23.392;2023-09-19T04:29:09;12.33;;;9.97;;
3101;SDS011;1561;42.666;23.392;2023-09-19T04:31:55;12.60;;;11.07;;
3101;SDS011;1561;42.666;23.392;2023-09-19T04:34:35;11.53;;;8.53;;
3101;SDS011;1561;42.666;23.392;2023-09-19T04:37:20;11.60;;;8.77;;
3101;SDS011;1561;42.666;23.392;2023-09-19T04:39:56;14.60;;;8.80;;
3101;SDS011;1561;42.666;23.392;2023-09-19T04:42:38;10.90;;;8.50;;
3101;SDS011;1561;42.666;23.392;2023-09-19T04:45:07;11.93;;;8.30;;
3101;SDS011;1561;42.666;23.392;2023-09-19T04:47:38;10.03;;;9.00;;
3101;SDS011;1561;42.666;23.392;2023-09-19T04:50:19;10.87;;;9.00;;
3101;SDS011;1561;42.666;23.392;2023-09-19T04:52:53;12.77;;;9.00;;
3101;SDS011;1561;42.666;23.392;2023-09-19T04:55:21;11.23;;;9.30;;
3101;SDS011;1561;42.666;23.392;2023-09-19T04:57:55;10.43;;;9.33;;
3101;SDS011;1561;42.666;23.392;2023-09-19T05:00:22;9.37;;;8.33;;
3101;SDS011;1561;42.666;23.392;2023-09-19T05:02:56;10.43;;;8.10;;
3101;SDS011;1561;42.666;23.392;2023-09-19T05:05:23;13.70;;;9.00;;
3101;SDS011;1561;42.666;23.392;2023-09-19T05:08:04;11.67;;;8.83;;
3101;SDS011;1561;42.666;23.392;2023-09-19T05:10:37;12.93;;;9.07;;
3101;SDS011;1561;42.666;23.392;2023-09-19T05:13:06;12.80;;;9.47;;
3101;SDS011;1561;42.666;23.392;2023-09-19T05:15:36;11.25;;;9.68;;
3101;SDS011;1561;42.666;23.392;2023-09-19T05:18:05;10.95;;;8.75;;
3101;SDS011;1561;42.666;23.392;2023-09-19T05:20:33;9.38;;;6.93;;
3101;SDS011;1561;42.666;23.392;2023-09-19T05:23:08;9.15;;;7.97;;
3101;SDS011;1561;42.666;23.392;2023-09-19T05:25:37;7.97;;;7.18;;
3101;SDS011;1561;42.666;23.392;2023-09-19T05:28:14;7.20;;;6.03;;
3101;SDS011;1561;42.666;23.392;2023-09-19T05:30:41;7.18;;;6.25;;
3101;SDS011;1561;42.666;23.392;2023-09-19T05:33:10;7.78;;;6.30;;
3101;SDS011;1561;42.666;23.392;2023-09-19T05:35:38;7.18;;;6.47;;
3101;SDS011;1561;42.666;23.392;2023-09-19T05:38:10;6.38;;;5.78;;
3101;SDS011;1561;42.666;23.392;2023-09-19T05:40:41;6.30;;;5.80;;
3101;SDS011;1561;42.666;23.392;2023-09-19T05:43:10;9.15;;;6.72;;
3101;SDS011;1561;42.666;23.392;2023-09-19T05:45:37;6.68;;;6.07;;
3101;SDS011;1561;42.666;23.392;2023-09-19T05:48:07;7.05;;;6.35;;
3101;SDS011;1561;42.666;23.392;2023-09-19T05:50:41;8.52;;;6.18;;
3101;SDS011;1561;42.666;23.392;2023-09-19T05:53:16;11.57;;;10.32;;
3101;SDS011;1561;42.666;23.392;2023-09-19T05:55:45;7.20;;;6.28;;
3101;SDS011;1561;42.666;23.392;2023-09-19T05:58:15;7.10;;;6.43;;
3101;SDS011;1561;42.666;23.392;2023-09-19T06:00:47;11.63;;;6.63;;
3101;SDS011;1561;42.666;23.392;2023-09-19T06:03:15;9.25;;;7.53;;
3101;SDS011;1561;42.666;23.392;2023-09-19T06:05:57;9.40;;;6.68;;
3101;SDS011;1561;42.666;23.392;2023-09-19T06:08:26;9.45;;;6.72;;
3101;SDS011;1561;42.666;23.392;2023-09-19T06:10:54;8.88;;;7.53;;
3101;SDS011;1561;42.666;23.392;2023-09-19T06:13:21;6.60;;;6.00;;
3101;SDS011;1561;42.666;23.392;2023-09-19T06:15:48;7.57;;;6.72;;
3101;SDS011;1561;42.666;23.392;2023-09-19T06:18:18;9.38;;;7.38;;
3101;SDS011;1561;42.666;23.392;2023-09-19T06:20:51;9.18;;;7.07;;
3101;SDS011;1561;42.666;23.392;2023-09-19T06:23:20;8.20;;;6.80;;
3101;SDS011;1561;42.666;23.392;2023-09-19T06:25:55;6.80;;;5.80;;
3101;SDS011;1561;42.666;23.392;2023-09-19T06:28:25;7.03;;;6.40;;
3101;SDS011;1561;42.666;23.392;2023-09-19T06:30:57;7.18;;;6.40;;
3101;SDS011;1561;42.666;23.392;2023-09-19T06:33:35;7.32;;;6.70;;
3101;SDS011;1561;42.666;23.392;2023-09-19T06:36:13;6.88;;;6.18;;
3101;SDS011;1561;42.666;23.392;2023-09-19T06:38:48;7.13;;;6.43;;
3101;SDS011;1561;42.666;23.392;2023-09-19T06:41:33;7.18;;;6.47;;
3101;SDS011;1561;42.666;23.392;2023-09-19T06:44:05;7.53;;;6.88;;
3101;SDS011;1561;42.666;23.392;2023-09-19T06:46:37;6.78;;;6.03;;
3101;SDS011;1561;42.666;23.392;2023-09-19T06:49:16;6.88;;;6.18;;
3101;SDS011;1561;42.666;23.392;2023-09-19T06:51:46;7.07;;;6.57;;
3101;SDS011;1561;42.666;23.392;2023-09-19T06:54:33;6.90;;;6.30;;
3101;SDS011;1561;42.666;23.392;2023-09-19T06:57:07;6.85;;;5.97;;
3101;SDS011;1561;42.666;23.392;2023-09-19T06:59:41;16.30;;;13.98;;
3101;SDS011;1561;42.666;23.392;2023-09-19T07:02:10;10.30;;;8.35;;
3101;SDS011;1561;42.666;23.392;2023-09-19T07:04:59;9.18;;;7.88;;
3101;SDS011;1561;42.666;23.392;2023-09-19T07:07:28;7.70;;;7.03;;
3101;SDS011;1561;42.666;23.392;2023-09-19T07:10:00;6.50;;;5.97;;
3101;SDS011;1561;42.666;23.392;2023-09-19T07:12:36;10.52;;;9.02;;
3101;SDS011;1561;42.666;23.392;2023-09-19T07:15:11;7.68;;;6.70;;
3101;SDS011;1561;42.666;23.392;2023-09-19T07:17:42;6.60;;;6.00;;
3101;SDS011;1561;42.666;23.392;2023-09-19T07:20:33;6.13;;;5.50;;
3101;SDS011;1561;42.666;23.392;2023-09-19T07:23:04;6.70;;;6.00;;
3101;SDS011;1561;42.666;23.392;2023-09-19T07:25:35;7.53;;;6.72;;
3101;SDS011;1561;42.666;23.392;2023-09-19T07:28:12;7.25;;;6.55;;
3101;SDS011;1561;42.666;23.392;2023-09-19T07:30:44;7.43;;;6.72;;
3101;SDS011;1561;42.666;23.392;2023-09-19T07:33:25;7.15;;;5.88;;
3101;SDS011;1561;42.666;23.392;2023-09-19T07:36:09;7.30;;;5.50;;
3101;SDS011;1561;42.666;23.392;2023-09-19T07:38:39;8.45;;;5.95;;
3101;SDS011;1561;42.666;23.392;2023-09-19T07:41:20;9.30;;;6.40;;
3101;SDS011;1561;42.666;23.392;2023-09-19T07:44:19;10.63;;;6.18;;
3101;SDS011;1561;42.666;23.392;2023-09-19T07:46:59;10.13;;;6.07;;
3101;SDS011;1561;42.666;23.392;2023-09-19T07:49:32;7.47;;;6.60;;
3101;SDS011;1561;42.666;23.392;2023-09-19T07:52:11;8.23;;;5.78;;
3101;SDS011;1561;42.666;23.392;2023-09-19T07:55:00;13.02;;;8.02;;
3101;SDS011;1561;42.666;23.392;2023-09-19T07:57:34;6.57;;;5.97;;
3101;SDS011;1561;42.666;23.392;2023-09-19T08:00:28;7.80;;;7.00;;
3101;SDS011;1561;42.666;23.392;2023-09-19T08:03:12;9.05;;;8.10;;
3101;SDS011;1561;42.666;23.392;2023-09-19T08:05:50;6.70;;;5.88;;
3101;SDS011;1561;42.666;23.392;2023-09-19T08:08:19;5.90;;;5.35;;
3101;SDS011;1561;42.666;23.392;2023-09-19T08:10:54;6.63;;;6.10;;
3101;SDS011;1561;42.666;23.392;2023-09-19T08:13:29;10.90;;;6.40;;
3101;SDS011;1561;42.666;23.392;2023-09-19T08:16:02;6.43;;;5.93;;
3101;SDS011;1561;42.666;23.392;2023-09-19T08:18:32;8.45;;;6.30;;
3101;SDS011;1561;42.666;23.392;2023-09-19T08:20:59;8.65;;;6.40;;
3101;SDS011;1561;42.666;23.392;2023-09-19T08:23:44;6.32;;;5.72;;
3101;SDS011;1561;42.666;23.392;2023-09-19T08:26:13;7.25;;;6.47;;
3101;SDS011;1561;42.666;23.392;2023-09-19T08:28:41;6.72;;;6.18;;
3101;SDS011;1561;42.666;23.392;2023-09-19T08:31:14;8.00;;;7.30;;
3101;SDS011;1561;42.666;23.392;2023-09-19T08:33:44;8.50;;;7.00;;
3101;SDS011;1561;42.666;23.392;2023-09-19T08:36:17;11.90;;;7.15;;
3101;SDS011;1561;42.666;23.392;2023-09-19T08:38:52;7.18;;;6.57;;
3101;SDS011;1561;42.666;23.392;2023-09-19T08:41:19;7.72;;;6.70;;
3101;SDS011;1561;42.666;23.392;2023-09-19T08:43:51;7.20;;;5.80;;
3101;SDS011;1561;42.666;23.392;2023-09-19T08:46:42;8.02;;;6.18;;
3101;SDS011;1561;42.666;23.392;2023-09-19T08:49:27;9.40;;;5.90;;
3101;SDS011;1561;42.666;23.392;2023-09-19T08:52:19;15.57;;;5.28;;
3101;SDS011;1561;42.666;23.392;2023-09-19T08:54:50;6.85;;;5.60;;
3101;SDS011;1561;42.666;23.392;2023-09-19T08:57:23;7.68;;;6.75;;
3101;SDS011;1561;42.666;23.392;2023-09-19T08:59:59;13.48;;;6.60;;
3101;SDS011;1561;42.666;23.392;2023-09-19T09:02:51;10.68;;;5.65;;
3101;SDS011;1561;42.666;23.392;2023-09-19T09:05:23;7.20;;;6.50;;
3101;SDS011;1561;42.666;23.392;2023-09-19T09:07:53;7.22;;;6.10;;
3101;SDS011;1561;42.666;23.392;2023-09-19T09:10:22;6.57;;;5.90;;
3101;SDS011;1561;42.666;23.392;2023-09-19T09:13:00;6.45;;;5.95;;
3101;SDS011;1561;42.666;23.392;2023-09-19T09:15:28;7.30;;;5.05;;
3101;SDS011;1561;42.666;23.392;2023-09-19T09:17:58;9.68;;;5.93;;
3101;SDS011;1561;42.666;23.392;2023-09-19T09:20:27;7.18;;;5.72;;
3101;SDS011;1561;42.666;23.392;2023-09-19T09:22:56;8.40;;;6.50;;
3101;SDS011;1561;42.666;23.392;2023-09-19T09:28:21;7.38;;;5.30;;
3101;SDS011;1561;42.666;23.392;2023-09-19T09:30:50;6.97;;;6.00;;
3101;SDS011;1561;42.666;23.392;2023-09-19T09:33:21;6.03;;;5.63;;
3101;SDS011;1561;42.666;23.392;2023-09-19T09:35:54;6.65;;;5.78;;
3101;SDS011;1561;42.666;23.392;2023-09-19T09:38:47;7.90;;;5.90;;
3101;SDS011;1561;42.666;23.392;2023-09-19T09:41:21;7.03;;;5.90;;
3101;SDS011;1561;42.666;23.392;2023-09-19T09:44:12;6.40;;;5.80;;
3101;SDS011;1561;42.666;23.392;2023-09-19T09:47:02;6.85;;;6.20;;
3101;SDS011;1561;42.666;23.392;2023-09-19T09:49:50;8.07;;;6.25;;
3101;SDS011;1561;42.666;23.392;2023-09-19T09:52:43;6.78;;;6.10;;
3101;SDS011;1561;42.666;23.392;2023-09-19T09:55:21;9.90;;;8.88;;
3101;SDS011;1561;42.666;23.392;2023-09-19T09:57:52;7.10;;;6.60;;
3101;SDS011;1561;42.666;23.392;2023-09-19T10:00:51;7.78;;;6.97;;
3101;SDS011;1561;42.666;23.392;2023-09-19T10:03:39;6.97;;;6.28;;
3101;SDS011;1561;42.666;23.392;2023-09-19T10:06:26;6.30;;;5.85;;
3101;SDS011;1561;42.666;23.392;2023-09-19T10:09:12;7.72;;;7.00;;
3101;SDS011;1561;42.666;23.392;2023-09-19T10:11:46;7.18;;;6.55;;
3101;SDS011;1561;42.666;23.392;2023-09-19T10:14:24;7.55;;;6.65;;
3101;SDS011;1561;42.666;23.392;2023-09-19T10:16:56;8.20;;;7.43;;
3101;SDS011;1561;42.666;23.392;2023-09-19T10:19:30;7.43;;;6.63;;
3101;SDS011;1561;42.666;23.392;2023-09-19T10:22:05;7.72;;;7.00;;
3101;SDS011;1561;42.666;23.392;2023-09-19T10:24:35;7.13;;;6.60;;
3101;SDS011;1561;42.666;23.392;2023-09-19T10:27:11;7.65;;;6.95;;
3101;SDS011;1561;42.666;23.392;2023-09-19T10:29:41;11.00;;;8.98;;
3101;SDS011;1561;42.666;23.392;2023-09-19T10:32:17;15.77;;;12.60;;
3101;SDS011;1561;42.666;23.392;2023-09-19T10:34:53;7.82;;;7.13;;
3101;SDS011;1561;42.666;23.392;2023-09-19T10:37:28;8.95;;;8.25;;
3101;SDS011;1561;42.666;23.392;2023-09-19T10:40:03;9.25;;;7.43;;
3101;SDS011;1561;42.666;23.392;2023-09-19T10:42:39;9.02;;;8.23;;
3101;SDS011;1561;42.666;23.392;2023-09-19T10:45:23;7.65;;;6.95;;
3101;SDS011;1561;42.666;23.392;2023-09-19T10:47:51;6.88;;;6.28;;
3101;SDS011;1561;42.666;23.392;2023-09-19T10:50:30;8.73;;;7.93;;
3101;SDS011;1561;42.666;23.392;2023-09-19T10:53:17;9.77;;;6.70;;
3101;SDS011;1561;42.666;23.392;2023-09-19T10:55:52;7.35;;;6.63;;
3101;SDS011;1561;42.666;23.392;2023-09-19T10:58:38;7.43;;;6.82;;
3101;SDS011;1561;42.666;23.392;2023-09-19T11:01:12;6.70;;;6.10;;
3101;SDS011;1561;42.666;23.392;2023-09-19T11:03:42;7.72;;;6.90;;
3101;SDS011;1561;42.666;23.392;2023-09-19T11:06:15;13.88;;;8.15;;
3101;SDS011;1561;42.666;23.392;2023-09-19T11:11:49;8.20;;;7.40;;
3101;SDS011;1561;42.666;23.392;2023-09-19T11:14:41;10.18;;;9.18;;
3101;SDS011;1561;42.666;23.392;2023-09-19T11:20:16;7.78;;;7.13;;
3101;SDS011;1561;42.666;23.392;2023-09-19T11:23:18;8.13;;;7.35;;
3101;SDS011;1561;42.666;23.392;2023-09-19T11:25:57;6.63;;;6.05;;
3101;SDS011;1561;42.666;23.392;2023-09-19T11:28:31;7.97;;;7.28;;
3101;SDS011;1561;42.666;23.392;2023-09-19T11:31:43;8.40;;;7.00;;
3101;SDS011;1561;42.666;23.392;2023-09-19T11:34:40;8.65;;;7.78;;
3101;SDS011;1561;42.666;23.392;2023-09-19T11:40:46;7.40;;;6.80;;
3101;SDS011;1561;42.666;23.392;2023-09-19T11:49:29;8.32;;;7.38;;
3101;SDS011;1561;42.666;23.392;2023-09-19T11:52:08;7.00;;;6.30;;
3101;SDS011;1561;42.666;23.392;2023-09-19T11:54:41;7.25;;;6.60;;
3101;SDS011;1561;42.666;23.392;2023-09-19T11:57:20;11.73;;;6.97;;
3101;SDS011;1561;42.666;23.392;2023-09-19T11:59:51;6.60;;;6.10;;
3101;SDS011;1561;42.666;23.392;2023-09-19T12:05:14;7.20;;;6.70;;
3101;SDS011;1561;42.666;23.392;2023-09-19T12:07:55;13.05;;;10.88;;
3101;SDS011;1561;42.666;23.392;2023-09-19T12:10:29;15.25;;;10.23;;
3101;SDS011;1561;42.666;23.392;2023-09-19T12:13:00;9.02;;;7.00;;
3101;SDS011;1561;42.666;23.392;2023-09-19T12:15:36;7.45;;;6.75;;
3101;SDS011;1561;42.666;23.392;2023-09-19T12:18:12;8.20;;;7.18;;
3101;SDS011;1561;42.666;23.392;2023-09-19T12:20:55;7.47;;;6.85;;
3101;SDS011;1561;42.666;23.392;2023-09-19T12:23:32;7.43;;;6.80;;
3101;SDS011;1561;42.666;23.392;2023-09-19T12:26:04;7.47;;;6.78;;
3101;SDS011;1561;42.666;23.392;2023-09-19T12:28:40;7.85;;;7.18;;
3101;SDS011;1561;42.666;23.392;2023-09-19T12:31:21;7.65;;;6.95;;
3101;SDS011;1561;42.666;23.392;2023-09-19T12:34:09;8.48;;;7.72;;
3101;SDS011;1561;42.666;23.392;2023-09-19T12:36:48;7.90;;;7.20;;
3101;SDS011;1561;42.666;23.392;2023-09-19T12:39:36;8.02;;;6.82;;
3101;SDS011;1561;42.666;23.392;2023-09-19T12:42:23;11.18;;;7.43;;
3101;SDS011;1561;42.666;23.392;2023-09-19T12:44:59;8.40;;;7.38;;
3101;SDS011;1561;42.666;23.392;2023-09-19T12:47:36;7.38;;;6.72;;
3101;SDS011;1561;42.666;23.392;2023-09-19T12:53:57;8.38;;;7.50;;
3101;SDS011;1561;42.666;23.392;2023-09-19T12:56:42;7.50;;;6.90;;
3101;SDS011;1561;42.666;23.392;2023-09-19T12:59:29;7.80;;;7.00;;
3101;SDS011;1561;42.666;23.392;2023-09-19T13:02:26;7.63;;;6.85;;
3101;SDS011;1561;42.666;23.392;2023-09-19T13:04:59;7.30;;;6.63;;
3101;SDS011;1561;42.666;23.392;2023-09-19T13:07:50;8.30;;;7.45;;
3101;SDS011;1561;42.666;23.392;2023-09-19T13:10:23;8.35;;;7.55;;
3101;SDS011;1561;42.666;23.392;2023-09-19T13:13:11;8.05;;;7.40;;
3101;SDS011;1561;42.666;23.392;2023-09-19T13:15:56;8.35;;;7.57;;
3101;SDS011;1561;42.666;23.392;2023-09-19T13:18:27;10.48;;;6.97;;
3101;SDS011;1561;42.666;23.392;2023-09-19T13:21:13;9.02;;;7.45;;
3101;SDS011;1561;42.666;23.392;2023-09-19T13:24:22;8.50;;;7.55;;
3101;SDS011;1561;42.666;23.392;2023-09-19T13:26:55;6.88;;;6.43;;
3101;SDS011;1561;42.666;23.392;2023-09-19T13:29:28;8.30;;;7.50;;
3101;SDS011;1561;42.666;23.392;2023-09-19T13:32:07;8.27;;;7.47;;
3101;SDS011;1561;42.666;23.392;2023-09-19T13:34:37;7.47;;;6.97;;
3101;SDS011;1561;42.666;23.392;2023-09-19T13:37:07;8.40;;;7.68;;
3101;SDS011;1561;42.666;23.392;2023-09-19T13:39:41;8.23;;;7.47;;
3101;SDS011;1561;42.666;23.392;2023-09-19T13:42:14;8.55;;;7.70;;
3101;SDS011;1561;42.666;23.392;2023-09-19T13:44:48;8.18;;;7.47;;
3101;SDS011;1561;42.666;23.392;2023-09-19T13:47:21;8.07;;;7.32;;
3101;SDS011;1561;42.666;23.392;2023-09-19T13:50:04;9.18;;;8.25;;
3101;SDS011;1561;42.666;23.392;2023-09-19T13:52:37;8.90;;;8.10;;
3101;SDS011;1561;42.666;23.392;2023-09-19T13:55:19;9.35;;;8.07;;
3101;SDS011;1561;42.666;23.392;2023-09-19T13:57:47;8.85;;;8.05;;
3101;SDS011;1561;42.666;23.392;2023-09-19T14:00:19;8.35;;;7.65;;
3101;SDS011;1561;42.666;23.392;2023-09-19T14:02:54;8.48;;;7.78;;
3101;SDS011;1561;42.666;23.392;2023-09-19T14:08:21;10.57;;;8.27;;
3101;SDS011;1561;42.666;23.392;2023-09-19T14:11:05;8.23;;;7.63;;
3101;SDS011;1561;42.666;23.392;2023-09-19T14:13:43;10.77;;;7.30;;
3101;SDS011;1561;42.666;23.392;2023-09-19T14:16:20;8.02;;;7.30;;
3101;SDS011;1561;42.666;23.392;2023-09-19T14:18:56;7.70;;;7.13;;
3101;SDS011;1561;42.666;23.392;2023-09-19T14:21:33;8.45;;;7.60;;
3101;SDS011;1561;42.666;23.392;2023-09-19T14:24:04;8.60;;;8.00;;
3101;SDS011;1561;42.666;23.392;2023-09-19T14:26:36;10.05;;;9.35;;
3101;SDS011;1561;42.666;23.392;2023-09-19T14:29:11;25.38;;;18.23;;
3101;SDS011;1561;42.666;23.392;2023-09-19T14:31:48;23.35;;;17.45;;
3101;SDS011;1561;42.666;23.392;2023-09-19T14:34:24;17.38;;;11.40;;
3101;SDS011;1561;42.666;23.392;2023-09-19T14:36:51;10.77;;;7.70;;
3101;SDS011;1561;42.666;23.392;2023-09-19T14:39:27;7.60;;;7.05;;
3101;SDS011;1561;42.666;23.392;2023-09-19T14:42:00;9.27;;;8.38;;
3101;SDS011;1561;42.666;23.392;2023-09-19T14:44:33;11.15;;;9.10;;
3101;SDS011;1561;42.666;23.392;2023-09-19T14:47:03;9.57;;;8.77;;
3101;SDS011;1561;42.666;23.392;2023-09-19T14:49:32;8.52;;;7.80;;
3101;SDS011;1561;42.666;23.392;2023-09-19T14:52:07;8.63;;;8.02;;
3101;SDS011;1561;42.666;23.392;2023-09-19T14:54:35;8.77;;;8.02;;
3101;SDS011;1561;42.666;23.392;2023-09-19T14:57:07;8.93;;;8.13;;
3101;SDS011;1561;42.666;23.392;2023-09-19T14:59:35;8.18;;;7.50;;
3101;SDS011;1561;42.666;23.392;2023-09-19T15:02:03;9.13;;;7.40;;
3101;SDS011;1561;42.666;23.392;2023-09-19T15:04:32;8.75;;;7.95;;
3101;SDS011;1561;42.666;23.392;2023-09-19T15:07:00;8.10;;;7.50;;
3101;SDS011;1561;42.666;23.392;2023-09-19T15:09:28;8.27;;;7.57;;
3101;SDS011;1561;42.666;23.392;2023-09-19T15:11:57;8.52;;;7.82;;
3101;SDS011;1561;42.666;23.392;2023-09-19T15:14:27;8.57;;;7.88;;
3101;SDS011;1561;42.666;23.392;2023-09-19T15:16:55;9.27;;;8.35;;
3101;SDS011;1561;42.666;23.392;2023-09-19T15:19:23;8.10;;;7.40;;
3101;SDS011;1561;42.666;23.392;2023-09-19T15:21:50;8.50;;;7.80;;
3101;SDS011;1561;42.666;23.392;2023-09-19T15:24:20;8.63;;;7.60;;
3101;SDS011;1561;42.666;23.392;2023-09-19T15:26:47;8.77;;;8.07;;
3101;SDS011;1561;42.666;23.392;2023-09-19T15:29:16;10.13;;;8.63;;
3101;SDS011;1561;42.666;23.392;2023-09-19T15:31:54;10.50;;;7.72;;
3101;SDS011;1561;42.666;23.392;2023-09-19T15:34:25;9.63;;;8.77;;
3101;SDS011;1561;42.666;23.392;2023-09-19T15:36:55;9.55;;;8.82;;
3101;SDS011;1561;42.666;23.392;2023-09-19T15:39:23;8.07;;;7.28;;
3101;SDS011;1561;42.666;23.392;2023-09-19T15:41:58;8.25;;;7.53;;
3101;SDS011;1561;42.666;23.392;2023-09-19T15:44:26;9.23;;;8.23;;
3101;SDS011;1561;42.666;23.392;2023-09-19T15:46:56;8.80;;;8.18;;
3101;SDS011;1561;42.666;23.392;2023-09-19T15:49:25;8.23;;;7.50;;
3101;SDS011;1561;42.666;23.392;2023-09-19T15:51:52;10.98;;;8.68;;
3101;SDS011;1561;42.666;23.392;2023-09-19T15:54:23;11.80;;;8.10;;
3101;SDS011;1561;42.666;23.392;2023-09-19T15:56:55;9.00;;;8.27;;
3101;SDS011;1561;42.666;23.392;2023-09-19T15:59:22;11.85;;;8.60;;
3101;SDS011;1561;42.666;23.392;2023-09-19T16:01:49;10.52;;;8.82;;
3101;SDS011;1561;42.666;23.392;2023-09-19T16:04:18;8.45;;;7.65;;
3101;SDS011;1561;42.666;23.392;2023-09-19T16:06:46;9.40;;;7.97;;
3101;SDS011;1561;42.666;23.392;2023-09-19T16:09:13;8.93;;;8.00;;
3101;SDS011;1561;42.666;23.392;2023-09-19T16:11:41;9.05;;;8.25;;
3101;SDS011;1561;42.666;23.392;2023-09-19T16:14:09;8.38;;;7.68;;